Share

Urumqi, Xinjiang Uygur

2:10 PM CST on April 25, 2014 (GMT +0800)
Diwopu (ZWWW) Elev 2146 ft | 43.91 °N, 87.47 °E | Change Station

Current weather conditions updated 10 minutes ago

Clear
Clear
52 °F
Feels Like 52 °F
N
4
Wind Variable Wind from Variable
Sunrise 7:11 AM
Sunset 9:04 PM
Moon Waning Crescent

Today is forecast to be Much Warmer than yesterday.

Pressure 30.06 in
Visibility -9999.0 miles
Clouds
Dew Point 27 °F
Humidity 38%
Rainfall 0.00 in
Snow Depth Not available.
UV Not available.
Pollen Not available.
Air Quality Not available.
Flu Activity Not available.
METAR ZWWW 250600Z VRB02MPS CAVOK 11/M03 Q1018 NOSIG

More Conditions Fewer Conditions

Pressure 30.06 in
Visibility -9999.0 miles
Clouds
Dew Point 27 °F
Humidity 38%
Rainfall 0.00 in
Snow Depth Not available.
UV Not available.
Pollen Not available.
Air Quality Not available.
Flu Activity Not available.
METAR ZWWW 250600Z VRB02MPS CAVOK 11/M03 Q1018 NOSIG

More Conditions Fewer Conditions

10-Day Weather Forecast

Almanac

Astronomy

Apr. 25, 2014 Rise Set
Actual Time 7:11 AM CST 9:04 PM CST
Civil Twilight 6:40 AM CST 9:35 PM CST
Nautical Twilight 6:02 AM CST 10:13 PM CST
Astronomical Twilight 5:21 AM CST 10:54 PM CST
Moon 4:50 AM CST 4:46 PM CST
Length of Visible Light 14h 55m
Length of Day
13h 53m
Tomorrow will be 2m 43s longer.
Waning Crescent, 19% of the Moon is Illuminated
Today
Waning Crescent
Apr 29
New
May 6
First Quarter
May 14
Full
May 21
Last Quarter

Yesterday's Extremes

Country Highs Country Lows

Community

  • Deer in evening light
    Deer in evening light
  • Critter
    Critter
  • Jone Runs Falls
    Jone Runs Falls
  • Easter in Shenandoah National Park
    Easter in Shenandoah National Park
  • Sunset at Apalachicola Bay, Florida
    Sunset at Apalachicola Bay, Florida

WunderPhotos

Upload Photos

1,704,865 photos uploaded!

WunderBlogs® & News

Nearby

Snow Depth

Not available.

Coastal Water Temperatures

Place Temperature
No Stations Reporting

Earthquake Activity

City Distance Mag. Time & Date
No recent earthquake activity has been reported nearby.
Minimum magnitude displayed is 2.5.

Nearby Weather Stations

There are no personal weather stations in this area.

What do you think?

We're not finished. Please let us know what you like, what you don't like, and what you are still missing.